Time;durP1;ratioP1;P1;durP2;ratioP2;P2;SDS_P1;SDS_P2;PMS_P1;PMS_P2;Temp;Humidity;BMP_temperature;BMP_pressure;BME280_temperature;BME280_humidity;BME280_pressure;Samples;Min_cycle;Max_cycle;Signal;HPM_P1;HPM_P2
2023/07/29 00:00:15;;;;;;;14.13;6.00;;;;;;;19.13;59.05;99994.14;124841;1099;104195;-80
2023/07/29 00:03:06;;;;;;;17.53;6.20;;;;;;;19.18;59.04;99992.32;126032;1098;101826;-81
2023/07/29 00:05:37;;;;;;;14.63;6.07;;;;;;;19.20;58.80;99993.22;124891;1102;101967;-80
2023/07/29 00:08:09;;;;;;;13.17;5.93;;;;;;;19.19;59.33;99996.76;124835;1102;102162;-81
2023/07/29 00:10:41;;;;;;;14.07;5.90;;;;;;;19.15;59.05;99997.66;124901;1102;101788;-80
2023/07/29 00:13:12;;;;;;;13.83;6.20;;;;;;;19.07;59.87;99996.84;125436;1099;104190;-81
2023/07/29 00:15:43;;;;;;;15.40;6.20;;;;;;;18.98;59.91;99995.13;124771;1102;101702;-81
2023/07/29 00:18:15;;;;;;;14.47;6.20;;;;;;;18.90;60.14;100002.27;124805;1102;102309;-81
2023/07/29 00:20:47;;;;;;;13.97;6.03;;;;;;;18.83;60.91;99991.64;124860;1098;101998;-81
2023/07/29 00:23:20;;;;;;;14.47;5.90;;;;;;;18.82;61.16;99996.97;124872;1099;104265;-81
2023/07/29 00:25:51;;;;;;;15.10;6.23;;;;;;;18.79;60.70;99989.02;124907;1101;104165;-82
2023/07/29 00:28:22;;;;;;;15.70;6.73;;;;;;;18.72;60.85;99985.52;125007;1102;102026;-80
2023/07/29 00:30:53;;;;;;;15.60;6.73;;;;;;;18.67;61.00;99987.33;124876;1102;104288;-80
2023/07/29 00:33:25;;;;;;;15.87;6.60;;;;;;;18.61;61.30;99990.89;125989;1099;104361;-81
2023/07/29 00:36:01;;;;;;;13.68;6.28;;;;;;;18.55;61.45;99990.05;125421;1101;101852;-81
2023/07/29 00:38:33;;;;;;;14.40;6.50;;;;;;;18.51;61.00;99989.16;125955;1099;101776;-82
2023/07/29 00:41:04;;;;;;;16.60;7.00;;;;;;;18.49;62.19;99985.64;124797;1102;104227;-82
2023/07/29 00:43:36;;;;;;;16.27;7.00;;;;;;;18.46;61.96;99988.31;126066;1098;104239;-80
2023/07/29 00:46:08;;;;;;;16.10;6.33;;;;;;;18.44;61.60;99990.10;124773;1102;102164;-82
2023/07/29 00:48:41;;;;;;;14.70;6.30;;;;;;;18.40;62.50;99983.03;124831;1103;101816;-81
2023/07/29 00:51:12;;;;;;;18.00;6.90;;;;;;;18.38;62.72;99982.16;124852;1102;102145;-81
2023/07/29 00:53:43;;;;;;;12.87;6.17;;;;;;;18.38;62.67;99987.47;125987;1099;101788;-81
2023/07/29 00:56:15;;;;;;;18.73;7.37;;;;;;;18.36;62.74;99992.79;124876;1102;104251;-80
2023/07/29 00:58:48;;;;;;;17.30;7.25;;;;;;;18.26;63.30;99994.61;124872;1099;107101;-81
2023/07/29 01:01:20;;;;;;;18.23;6.83;;;;;;;18.14;64.03;99995.52;124795;1102;102005;-82
2023/07/29 01:03:51;;;;;;;14.20;6.40;;;;;;;18.02;63.97;99994.69;124865;1099;102285;-83
2023/07/29 01:06:30;;;;;;;15.33;6.03;;;;;;;17.93;63.85;100000.89;124859;1102;104635;-83
2023/07/29 01:09:06;;;;;;;14.80;6.23;;;;;;;17.84;64.33;99992.91;125010;1102;119132;-82
2023/07/29 01:11:50;;;;;;;14.13;6.43;;;;;;;17.81;64.45;99993.83;124744;1102;102268;-82
2023/07/29 01:14:29;;;;;;;14.67;6.50;;;;;;;17.77;64.20;99986.74;124870;1102;104223;-80
2023/07/29 01:17:04;;;;;;;16.87;7.27;;;;;;;17.75;64.91;99993.84;125998;1099;101730;-81
2023/07/29 01:19:54;;;;;;;17.57;6.73;;;;;;;17.72;64.82;99989.41;124805;1098;104173;-83
2023/07/29 01:22:27;;;;;;;18.47;6.83;;;;;;;17.71;64.67;99994.72;125812;1098;102092;-82
2023/07/29 01:24:58;;;;;;;13.33;6.30;;;;;;;17.71;64.78;100000.02;124843;1099;101932;-82
2023/07/29 01:27:30;;;;;;;17.00;6.83;;;;;;;17.70;64.81;99995.59;125249;1098;104178;-82
2023/07/29 01:30:02;;;;;;;14.73;6.80;;;;;;;17.65;65.05;99998.25;124841;1101;104261;-81
2023/07/29 01:32:40;;;;;;;14.03;6.30;;;;;;;17.64;65.03;100003.55;124848;1102;101845;-81
2023/07/29 01:35:20;;;;;;;19.97;6.27;;;;;;;17.59;64.98;99999.16;124846;1102;104278;-81
2023/07/29 01:37:56;;;;;;;14.73;6.20;;;;;;;17.58;65.37;100000.03;124864;1102;104489;-81
2023/07/29 01:40:29;;;;;;;15.90;6.70;;;;;;;17.56;65.47;99999.16;124919;1102;104056;-80
2023/07/29 01:43:02;;;;;;;14.23;6.50;;;;;;;17.55;65.37;99999.16;124929;1102;104224;-81
2023/07/29 01:45:37;;;;;;;14.77;6.10;;;;;;;17.56;65.51;99995.60;125067;1099;104208;-81
2023/07/29 01:48:09;;;;;;;13.37;5.80;;;;;;;17.53;65.70;99996.52;124911;1102;104353;-81
2023/07/29 01:50:40;;;;;;;14.37;6.17;;;;;;;17.51;65.80;100000.04;124904;1102;101981;-81
2023/07/29 01:53:14;;;;;;;14.47;5.97;;;;;;;17.46;65.75;100008.00;124793;1099;102081;-80
2023/07/29 01:55:46;;;;;;;15.53;6.50;;;;;;;17.42;66.29;100004.47;124861;1099;102157;-80
2023/07/29 01:58:18;;;;;;;16.17;6.97;;;;;;;17.36;66.64;100004.47;125477;1102;102696;-81
2023/07/29 02:00:51;;;;;;;22.33;7.17;;;;;;;17.33;66.39;99998.30;125059;1102;104235;-80
2023/07/29 02:03:23;;;;;;;18.07;7.20;;;;;;;17.29;66.31;99996.52;125497;1099;104367;-80
2023/07/29 02:05:54;;;;;;;21.13;7.50;;;;;;;17.25;66.67;100000.94;124988;1099;101779;-81
2023/07/29 02:08:25;;;;;;;18.77;7.67;;;;;;;17.20;66.95;100003.59;124862;1102;104172;-81
2023/07/29 02:10:56;;;;;;;19.17;8.93;;;;;;;17.18;67.27;100009.77;124789;1099;104329;-80
2023/07/29 02:13:28;;;;;;;19.37;9.47;;;;;;;17.13;67.11;100011.53;125180;1100;101860;-81
2023/07/29 02:15:59;;;;;;;20.27;9.17;;;;;;;17.09;67.07;100015.05;125214;1102;102104;-81
2023/07/29 02:18:30;;;;;;;17.47;8.03;;;;;;;17.10;66.66;100004.45;124941;1102;104178;-80
2023/07/29 02:21:02;;;;;;;18.60;8.73;;;;;;;17.15;66.93;100000.03;124866;1099;104220;-80
2023/07/29 02:23:34;;;;;;;16.73;7.80;;;;;;;17.20;66.87;99995.64;124929;1099;102073;-79
2023/07/29 02:26:06;;;;;;;23.73;7.80;;;;;;;17.28;67.12;100005.34;124922;1098;101875;-80
2023/07/29 02:28:37;;;;;;;18.07;7.30;;;;;;;17.26;66.92;100013.30;124784;1102;102014;-81
2023/07/29 02:31:18;;;;;;;18.63;7.37;;;;;;;17.22;67.21;100012.42;124848;1102;102019;-82
2023/07/29 02:33:50;;;;;;;16.50;7.67;;;;;;;17.18;67.19;100010.63;124795;1102;104277;-81
2023/07/29 02:36:21;;;;;;;17.40;7.43;;;;;;;17.17;66.79;100008.89;125104;1102;101913;-81
2023/07/29 02:38:53;;;;;;;13.77;7.13;;;;;;;17.14;66.93;100013.28;124944;1102;104259;-80
2023/07/29 02:41:24;;;;;;;19.10;7.87;;;;;;;17.13;68.21;100012.41;124902;1102;104179;-80
2023/07/29 02:43:56;;;;;;;18.23;8.07;;;;;;;17.08;67.41;100014.18;124882;1102;104285;-81
2023/07/29 02:46:27;;;;;;;17.77;8.17;;;;;;;17.03;67.80;100022.12;124922;1102;104268;-81
2023/07/29 02:48:59;;;;;;;21.27;9.00;;;;;;;17.00;68.27;100032.72;124824;1102;104159;-80
2023/07/29 02:51:30;;;;;;;20.67;9.40;;;;;;;16.97;68.77;100032.71;124789;1100;117868;-80
2023/07/29 02:54:02;;;;;;;23.37;10.47;;;;;;;16.96;68.66;100022.11;124773;1102;102195;-81
2023/07/29 02:56:33;;;;;;;25.30;10.93;;;;;;;16.99;68.27;100022.98;124879;1102;102087;-81
2023/07/29 02:59:04;;;;;;;25.27;10.70;;;;;;;17.10;68.14;100030.09;124917;1102;104261;-81
2023/07/29 03:01:36;;;;;;;22.37;9.53;;;;;;;17.20;67.86;100022.15;124894;1102;102073;-81
2023/07/29 03:04:08;;;;;;;22.53;10.20;;;;;;;17.34;68.36;100026.56;124908;1102;104182;-80
2023/07/29 03:06:39;;;;;;;20.83;9.83;;;;;;;17.41;67.76;100026.56;125082;1102;104323;-82
2023/07/29 03:09:11;;;;;;;25.50;10.03;;;;;;;17.45;68.16;100027.44;125763;1101;102089;-82
2023/07/29 03:11:42;;;;;;;25.50;11.27;;;;;;;17.49;68.67;100029.22;125879;1102;102064;-82
2023/07/29 03:14:13;;;;;;;25.17;11.03;;;;;;;17.50;68.43;100023.03;126771;1099;101813;-82
2023/07/29 03:16:44;;;;;;;22.33;10.33;;;;;;;17.50;67.88;100020.39;125858;1102;101890;-81
2023/07/29 03:19:16;;;;;;;22.70;10.33;;;;;;;17.53;67.76;100017.73;125815;1099;101778;-81
2023/07/29 03:21:48;;;;;;;22.33;9.67;;;;;;;17.59;67.73;100016.83;124934;1102;104073;-81
2023/07/29 03:24:19;;;;;;;17.03;8.27;;;;;;;17.69;67.82;100015.07;124926;1102;104229;-82
2023/07/29 03:26:50;;;;;;;17.53;8.23;;;;;;;17.75;67.89;100017.72;125158;1102;104310;-80
2023/07/29 03:29:21;;;;;;;18.37;8.20;;;;;;;17.81;67.59;100027.42;125102;1099;104256;-81
2023/07/29 03:31:53;;;;;;;20.03;8.23;;;;;;;17.81;67.88;100038.03;125166;1099;101889;-81
2023/07/29 03:34:24;;;;;;;20.97;8.00;;;;;;;17.78;67.91;100033.63;124892;1099;101932;-81
2023/07/29 03:36:55;;;;;;;20.37;8.60;;;;;;;17.75;68.00;100034.51;124962;1099;104315;-80
2023/07/29 03:39:27;;;;;;;17.03;8.20;;;;;;;17.77;68.21;100031.86;124821;1102;102150;-82
2023/07/29 03:41:58;;;;;;;22.07;8.73;;;;;;;17.78;68.30;100041.59;124910;1099;102087;-81
2023/07/29 03:44:31;;;;;;;19.03;8.27;;;;;;;17.76;68.02;100041.59;124921;1099;104076;-81
2023/07/29 03:47:02;;;;;;;21.83;9.17;;;;;;;17.82;67.71;100047.77;125577;1100;104163;-80
2023/07/29 03:49:33;;;;;;;19.03;7.20;;;;;;;17.84;67.74;100038.03;124951;1102;104287;-81
2023/07/29 03:52:05;;;;;;;14.80;7.03;;;;;;;17.87;68.13;100032.72;124980;1099;101752;-82
2023/07/29 03:54:38;;;;;;;17.13;7.20;;;;;;;17.88;67.72;100046.02;124912;1102;104734;-80
2023/07/29 03:57:09;;;;;;;18.30;7.20;;;;;;;17.86;67.99;100044.24;125471;1099;102066;-80
2023/07/29 03:59:42;;;;;;;18.17;7.27;;;;;;;17.87;68.02;100043.34;124914;1100;104252;-80
2023/07/29 04:02:15;;;;;;;19.70;7.85;;;;;;;17.88;67.92;100050.42;125013;1100;102090;-80
2023/07/29 04:04:48;;;;;;;18.83;7.37;;;;;;;17.90;67.61;100041.61;124972;1099;104243;-79
2023/07/29 04:07:19;;;;;;;19.90;7.33;;;;;;;17.92;68.22;100046.89;124877;1099;102040;-81
2023/07/29 04:09:51;;;;;;;17.50;6.80;;;;;;;17.94;68.15;100045.14;124919;1102;104272;-81
2023/07/29 04:12:22;;;;;;;17.33;7.47;;;;;;;17.95;67.94;100042.48;124914;1099;102502;-80
2023/07/29 04:14:53;;;;;;;19.33;7.27;;;;;;;17.99;68.38;100043.34;124879;1100;102022;-80
2023/07/29 04:17:25;;;;;;;15.93;6.77;;;;;;;18.02;68.08;100045.13;124865;1099;104281;-80
2023/07/29 04:19:56;;;;;;;16.57;7.07;;;;;;;18.05;68.22;100048.65;124857;1102;102423;-80
2023/07/29 04:22:30;;;;;;;14.83;6.40;;;;;;;18.06;68.22;100057.48;124895;1099;104238;-79
2023/07/29 04:25:02;;;;;;;14.87;6.20;;;;;;;18.07;68.32;100053.95;125567;1099;101833;-79
2023/07/29 04:27:33;;;;;;;15.30;6.10;;;;;;;18.10;68.56;100059.26;126033;1098;104200;-80
2023/07/29 04:30:05;;;;;;;15.40;5.87;;;;;;;18.16;68.31;100055.72;125201;1099;102119;-78
2023/07/29 04:32:36;;;;;;;13.20;6.03;;;;;;;18.19;68.41;100056.58;124933;1099;104328;-83
2023/07/29 04:35:12;;;;;;;13.23;5.73;;;;;;;18.25;68.26;100063.66;124912;1099;101883;-82
2023/07/29 04:37:44;;;;;;;13.17;5.80;;;;;;;18.33;68.34;100069.83;125507;1099;101782;-82
2023/07/29 04:40:15;;;;;;;12.27;5.43;;;;;;;18.40;68.44;100070.68;124872;1099;104335;-81
2023/07/29 04:42:47;;;;;;;14.17;5.77;;;;;;;18.46;68.74;100081.29;124912;1099;101817;-82
2023/07/29 04:45:18;;;;;;;13.60;5.63;;;;;;;18.52;68.47;100073.30;124987;1099;104172;-82
2023/07/29 04:47:49;;;;;;;9.25;5.00;;;;;;;18.58;68.39;100072.41;125994;1099;101827;-82
2023/07/29 04:50:21;;;;;;;8.80;4.40;;;;;;;18.63;68.02;100078.57;124821;1101;104221;-82
2023/07/29 04:52:53;;;;;;;9.67;4.80;;;;;;;18.66;68.08;100076.78;125013;1099;104179;-82
2023/07/29 04:55:24;;;;;;;9.53;4.90;;;;;;;18.73;68.40;100082.06;124995;1099;103188;-81
2023/07/29 04:57:55;;;;;;;10.83;4.60;;;;;;;18.79;68.09;100084.70;124972;1099;101977;-85
2023/07/29 05:00:27;;;;;;;8.37;4.50;;;;;;;18.84;67.64;100078.52;124982;1099;102266;-84
2023/07/29 05:02:58;;;;;;;8.60;4.30;;;;;;;18.91;67.76;100083.80;124878;1102;104389;-83
2023/07/29 05:05:30;;;;;;;9.20;4.83;;;;;;;18.99;67.60;100081.98;125013;1099;101861;-83
2023/07/29 05:08:04;;;;;;;7.57;4.13;;;;;;;19.08;68.11;100087.24;124945;1099;104172;-85
2023/07/29 05:10:35;;;;;;;12.97;4.90;;;;;;;19.16;67.95;100085.41;124779;1099;102172;-77
2023/07/29 05:13:07;;;;;;;8.43;4.00;;;;;;;19.25;67.74;100084.48;124868;1099;104217;-81
2023/07/29 05:15:39;;;;;;;9.10;4.20;;;;;;;19.34;67.52;100084.42;124808;1099;102185;-82
2023/07/29 05:18:10;;;;;;;9.13;4.30;;;;;;;19.41;67.33;100082.59;125306;1099;104236;-80
2023/07/29 05:20:41;;;;;;;10.10;4.10;;;;;;;19.48;66.88;100086.12;124864;1102;104278;-81
2023/07/29 05:23:13;;;;;;;9.23;4.07;;;;;;;19.54;67.12;100086.03;124906;1102;102494;-81
2023/07/29 05:25:44;;;;;;;7.73;3.97;;;;;;;19.64;67.14;100081.55;124786;1099;104169;-80
2023/07/29 05:28:16;;;;;;;8.20;4.07;;;;;;;19.73;67.03;100086.80;124763;1102;102293;-82
2023/07/29 05:30:47;;;;;;;11.10;4.07;;;;;;;19.82;66.63;100088.52;124893;1099;101941;-80
2023/07/29 05:33:19;;;;;;;13.13;4.30;;;;;;;19.91;66.40;100089.34;124908;1099;102916;-80
2023/07/29 05:35:50;;;;;;;9.73;4.07;;;;;;;20.01;66.19;100091.91;124856;1099;104405;-80
2023/07/29 05:38:21;;;;;;;10.47;4.10;;;;;;;20.10;66.60;100092.70;124967;1102;104214;-79
2023/07/29 05:40:53;;;;;;;10.27;4.23;;;;;;;20.20;66.19;100089.94;124960;1102;104326;-81
2023/07/29 05:43:25;;;;;;;10.60;4.33;;;;;;;20.29;65.85;100100.50;124898;1099;101936;-80
2023/07/29 05:45:56;;;;;;;6.70;3.67;;;;;;;20.39;65.07;100099.48;125450;1099;101728;-79
2023/07/29 05:48:28;;;;;;;9.00;4.43;;;;;;;20.47;65.97;100096.73;125498;1099;102400;-81
2023/07/29 05:50:59;;;;;;;9.27;3.90;;;;;;;20.56;65.08;100095.77;124863;1100;102160;-81
2023/07/29 05:53:31;;;;;;;7.10;3.77;;;;;;;20.67;64.92;100103.67;124794;1099;102000;-80
2023/07/29 05:56:02;;;;;;;7.13;3.80;;;;;;;20.76;64.51;100100.89;124939;1099;104169;-80
2023/07/29 05:58:33;;;;;;;7.03;3.73;;;;;;;20.86;64.51;100094.52;125532;1099;104182;-82
2023/07/29 06:01:05;;;;;;;9.40;4.03;;;;;;;20.97;63.86;100094.37;125065;1099;103263;-82
2023/07/29 06:03:36;;;;;;;8.90;3.83;;;;;;;21.08;63.89;100094.23;125524;1099;101877;-81
2023/07/29 06:06:07;;;;;;;9.47;3.93;;;;;;;21.16;63.74;100095.90;124868;1102;102415;-82
2023/07/29 06:08:38;;;;;;;7.53;3.47;;;;;;;21.26;63.62;100095.77;126035;1098;104169;-81
2023/07/29 06:11:10;;;;;;;6.90;3.70;;;;;;;21.36;62.25;100089.37;125057;1099;104169;-81
2023/07/29 06:13:41;;;;;;;11.27;3.67;;;;;;;21.46;62.37;100090.13;125107;1099;104264;-80
2023/07/29 06:16:12;;;;;;;8.27;3.77;;;;;;;21.56;62.19;100086.42;126498;1098;104247;-82
2023/07/29 06:18:45;;;;;;;12.90;3.90;;;;;;;21.65;61.59;100091.62;125344;1099;102073;-81
2023/07/29 06:21:16;;;;;;;7.83;3.60;;;;;;;21.76;61.63;100093.24;125086;1099;104223;-82
2023/07/29 06:23:48;;;;;;;7.30;3.47;;;;;;;21.84;61.94;100089.52;125147;1099;101855;-82
2023/07/29 06:26:19;;;;;;;10.27;3.60;;;;;;;21.93;61.28;100092.95;124946;1099;101991;-84
2023/07/29 06:28:51;;;;;;;6.63;3.40;;;;;;;22.02;60.57;100090.99;124954;1099;101996;-81
2023/07/29 06:31:22;;;;;;;9.97;3.53;;;;;;;22.11;60.81;100094.40;125125;1099;104220;-82
2023/07/29 06:33:54;;;;;;;9.50;3.60;;;;;;;22.21;60.45;100096.88;126249;1098;102242;-85
2023/07/29 06:36:25;;;;;;;7.73;3.73;;;;;;;22.31;60.11;100096.73;125201;1099;101795;-83
2023/07/29 06:38:57;;;;;;;8.90;3.53;;;;;;;22.43;60.57;100092.02;125685;1099;101926;-82
2023/07/29 06:41:28;;;;;;;7.40;3.60;;;;;;;22.53;59.79;100100.77;125534;1099;104200;-83
2023/07/29 06:43:59;;;;;;;5.80;3.60;;;;;;;22.63;60.34;100098.78;125163;1099;102086;-80
2023/07/29 06:46:30;;;;;;;6.53;3.70;;;;;;;22.75;60.06;100098.53;125027;1102;102099;-80
2023/07/29 06:49:02;;;;;;;10.63;3.80;;;;;;;22.92;59.19;100089.25;125086;1100;104217;-80
2023/07/29 06:51:34;;;;;;;6.10;3.30;;;;;;;23.06;58.43;100089.84;125572;1102;102126;-80
2023/07/29 06:54:06;;;;;;;6.85;3.40;;;;;;;23.21;58.39;100091.31;125287;1100;102660;-80
2023/07/29 06:56:40;;;;;;;4.77;3.17;;;;;;;23.40;57.58;100093.56;125215;1099;104245;-82
2023/07/29 06:59:11;;;;;;;8.83;3.37;;;;;;;23.54;57.62;100095.91;125737;1099;104207;-82
2023/07/29 07:01:43;;;;;;;7.63;3.47;;;;;;;23.71;56.86;100088.34;125281;1099;102110;-82
2023/07/29 07:04:14;;;;;;;7.80;3.20;;;;;;;23.90;55.89;100096.81;125036;1099;102006;-80
2023/07/29 07:06:45;;;;;;;6.80;3.07;;;;;;;24.10;55.29;100084.70;125056;1102;101810;-82
2023/07/29 07:09:16;;;;;;;5.13;3.10;;;;;;;24.32;55.09;100087.67;124993;1100;101909;-81
2023/07/29 07:11:48;;;;;;;5.87;3.17;;;;;;;24.53;54.68;100088.89;124832;1099;104251;-80
2023/07/29 07:14:19;;;;;;;5.93;3.17;;;;;;;24.65;54.75;100084.98;125220;1099;104198;-80
2023/07/29 07:16:50;;;;;;;6.17;3.07;;;;;;;24.81;54.31;100086.31;125563;1099;117809;-81
2023/07/29 07:19:22;;;;;;;5.37;3.00;;;;;;;24.98;54.03;100085.81;125792;1099;104262;-81
2023/07/29 07:21:53;;;;;;;5.27;2.97;;;;;;;25.13;54.30;100081.75;125013;1098;104187;-81
2023/07/29 07:24:24;;;;;;;6.63;3.37;;;;;;;25.31;54.33;100080.34;126215;1098;104262;-81
2023/07/29 07:26:55;;;;;;;5.17;3.10;;;;;;;25.51;53.10;100079.70;125564;1096;104175;-82
2023/07/29 07:29:27;;;;;;;6.53;3.27;;;;;;;25.66;53.64;100075.61;125381;1099;104182;-80
2023/07/29 07:31:59;;;;;;;6.23;3.40;;;;;;;26.00;51.60;100077.19;125823;1099;102099;-80
2023/07/29 07:34:31;;;;;;;7.13;3.37;;;;;;;26.32;50.98;100069.80;125531;1099;102027;-83
2023/07/29 07:37:03;;;;;;;5.67;3.30;;;;;;;26.65;51.11;100074.86;126138;1099;101839;-82
2023/07/29 07:39:35;;;;;;;5.47;3.67;;;;;;;26.99;50.76;100070.87;125383;1099;102271;-80
2023/07/29 07:42:07;;;;;;;8.60;3.30;;;;;;;27.19;49.63;100068.30;126783;1099;104178;-81
2023/07/29 07:44:38;;;;;;;6.40;3.20;;;;;;;27.30;48.18;100064.27;125417;1098;102029;-81
2023/07/29 07:47:10;;;;;;;6.57;3.43;;;;;;;27.65;48.66;100061.99;125592;1099;101881;-81
2023/07/29 07:49:41;;;;;;;6.57;3.20;;;;;;;27.84;48.45;100060.25;126332;1098;102158;-81
2023/07/29 07:52:12;;;;;;;7.50;3.30;;;;;;;28.08;47.32;100058.36;125998;1099;102077;-80
2023/07/29 07:54:43;;;;;;;5.57;3.27;;;;;;;28.34;47.68;100056.30;125764;1099;102092;-80
2023/07/29 07:57:17;;;;;;;6.80;3.30;;;;;;;28.54;47.69;100059.92;124861;1102;101878;-80
2023/07/29 07:59:49;;;;;;;4.50;3.13;;;;;;;28.81;46.75;100047.88;125877;1099;104069;-81
2023/07/29 08:02:20;;;;;;;4.73;2.93;;;;;;;29.12;44.61;100045.52;124973;1102;104169;-80
2023/07/29 08:04:51;;;;;;;4.53;3.20;;;;;;;29.36;42.63;100044.35;125171;1102;102025;-81
2023/07/29 08:07:23;;;;;;;6.83;3.40;;;;;;;29.57;42.97;100038.81;126154;1099;101910;-81
2023/07/29 08:09:54;;;;;;;5.00;3.00;;;;;;;29.62;43.97;100035.88;124878;1100;104194;-81
2023/07/29 08:12:28;;;;;;;5.37;3.03;;;;;;;29.67;43.02;100033.80;126285;1099;102275;-82
2023/07/29 08:15:00;;;;;;;5.23;3.13;;;;;;;29.70;41.69;100030.94;125898;1099;104256;-81
2023/07/29 08:17:37;;;;;;;7.07;3.37;;;;;;;29.61;41.95;100024.20;125403;1099;104194;-80
2023/07/29 08:20:11;;;;;;;5.30;2.97;;;;;;;29.60;41.59;100025.14;125045;1102;104272;-81
2023/07/29 08:22:47;;;;;;;5.17;2.60;;;;;;;29.64;41.15;100018.64;126077;1099;104387;-81
2023/07/29 08:25:18;;;;;;;6.60;3.00;;;;;;;29.68;40.89;100024.75;125344;1099;101843;-82
2023/07/29 08:27:50;;;;;;;8.13;3.10;;;;;;;29.72;40.78;100023.66;126215;1099;102422;-81
2023/07/29 08:30:21;;;;;;;6.03;3.13;;;;;;;29.83;40.80;100025.83;127107;1098;104242;-82
2023/07/29 08:32:52;;;;;;;4.20;2.70;;;;;;;29.95;40.18;100025.20;126047;1099;101903;-81
2023/07/29 08:35:27;;;;;;;4.93;3.30;;;;;;;30.09;40.33;100014.52;125397;1099;104169;-82
2023/07/29 08:37:59;;;;;;;11.00;3.30;;;;;;;30.21;40.43;100018.38;126280;1099;102039;-85
2023/07/29 08:40:33;;;;;;;5.13;3.00;;;;;;;30.23;39.56;100016.48;125889;1099;104172;-80
2023/07/29 08:43:07;;;;;;;4.43;2.80;;;;;;;30.31;39.84;100010.66;125963;1099;104169;-82
2023/07/29 08:45:39;;;;;;;4.53;2.90;;;;;;;30.34;38.87;100021.31;124885;1102;104396;-78
2023/07/29 08:48:13;;;;;;;6.00;3.12;;;;;;;30.37;38.44;100010.33;125965;1099;101811;-81
2023/07/29 08:50:47;;;;;;;4.80;3.17;;;;;;;30.34;38.59;100018.61;125985;1099;101871;-83
2023/07/29 08:53:21;;;;;;;4.70;2.93;;;;;;;30.37;38.46;100012.13;124894;1100;101945;-81
2023/07/29 08:55:53;;;;;;;6.17;3.30;;;;;;;30.36;38.19;100011.27;126988;1099;101798;-81
2023/07/29 08:58:25;;;;;;;5.03;3.10;;;;;;;30.25;38.09;100013.70;125944;1099;102190;-82
2023/07/29 09:00:56;;;;;;;4.27;3.10;;;;;;;30.23;38.09;100013.77;125952;1099;101859;-81
2023/07/29 09:03:29;;;;;;;3.97;3.03;;;;;;;30.16;37.33;100011.48;126173;1099;101919;-83
2023/07/29 09:06:03;;;;;;;5.65;3.08;;;;;;;30.20;37.68;100007.63;125179;1099;101798;-81
2023/07/29 09:08:36;;;;;;;7.43;3.20;;;;;;;30.27;37.57;100003.66;126227;1099;104175;-82
2023/07/29 09:11:11;;;;;;;4.73;3.07;;;;;;;30.26;37.54;99997.38;125683;1099;101920;-81
2023/07/29 09:13:43;;;;;;;4.07;3.10;;;;;;;30.28;36.88;100003.56;125435;1099;104195;-82
2023/07/29 09:16:16;;;;;;;4.03;2.90;;;;;;;30.28;36.41;100008.98;125346;1102;104293;-82
2023/07/29 09:18:50;;;;;;;2.87;2.57;;;;;;;30.31;36.43;99999.83;126106;1099;104169;-82
2023/07/29 09:21:26;;;;;;;4.43;3.20;;;;;;;30.42;36.37;100005.55;126962;1099;101708;-80
2023/07/29 09:23:58;;;;;;;3.90;3.03;;;;;;;30.38;36.39;100006.64;126701;1097;101804;-79
2023/07/29 09:26:31;;;;;;;4.13;2.63;;;;;;;30.34;35.77;100004.18;125612;1099;102001;-80
2023/07/29 09:29:02;;;;;;;4.42;2.90;;;;;;;30.21;35.73;99998.56;125042;1100;104223;-79
2023/07/29 09:31:35;;;;;;;2.93;2.50;;;;;;;30.05;35.42;99999.39;125634;1099;102025;-84
2023/07/29 09:34:06;;;;;;;4.35;2.72;;;;;;;29.93;35.24;100006.34;124821;1102;104166;-80
2023/07/29 09:36:38;;;;;;;4.93;2.90;;;;;;;29.93;35.84;100000.04;125056;1102;102508;-80
2023/07/29 09:39:14;;;;;;;3.30;2.93;;;;;;;30.00;35.78;99995.20;125136;1099;102589;-78
2023/07/29 09:41:50;;;;;;;8.07;3.13;;;;;;;30.08;35.53;99995.66;125296;1099;104205;-81
2023/07/29 09:44:21;;;;;;;5.10;2.93;;;;;;;30.11;34.97;99999.06;125090;1099;102108;-79
2023/07/29 09:46:52;;;;;;;3.83;2.87;;;;;;;30.03;35.11;99995.01;125087;1099;104316;-80
2023/07/29 09:49:25;;;;;;;4.40;2.97;;;;;;;29.93;35.19;100000.04;124999;1099;104333;-81
2023/07/29 09:51:59;;;;;;;3.42;2.80;;;;;;;29.98;35.09;99997.09;124940;1102;104070;-79
2023/07/29 09:54:30;;;;;;;5.60;2.70;;;;;;;30.07;35.23;99993.90;124888;1099;104227;-79
2023/07/29 09:57:02;;;;;;;4.07;2.80;;;;;;;30.12;35.09;100002.63;124842;1099;102093;-82
2023/07/29 09:59:36;;;;;;;4.17;2.90;;;;;;;30.17;34.96;100005.09;125099;1099;104137;-83
2023/07/29 10:02:14;;;;;;;5.83;3.07;;;;;;;30.19;34.77;100000.50;125090;1099;102397;-82
2023/07/29 10:04:47;;;;;;;4.93;2.93;;;;;;;30.11;34.98;99993.66;125033;1099;101799;-82
2023/07/29 10:07:19;;;;;;;3.98;2.80;;;;;;;30.18;35.20;99990.62;125369;1099;104128;-82
2023/07/29 10:09:53;;;;;;;7.43;3.17;;;;;;;30.25;34.82;99994.75;125791;1099;101826;-81
2023/07/29 10:12:25;;;;;;;6.17;2.60;;;;;;;30.36;34.95;99999.58;125054;1099;101813;-80
2023/07/29 10:15:00;;;;;;;3.58;2.62;;;;;;;30.40;34.58;99987.64;124922;1099;102509;-82
2023/07/29 10:17:34;;;;;;;5.00;3.10;;;;;;;30.38;34.80;99987.69;125224;1099;102062;-80
2023/07/29 10:20:08;;;;;;;3.93;2.97;;;;;;;30.39;34.71;99981.37;125632;1099;104207;-81
2023/07/29 10:22:41;;;;;;;3.67;2.50;;;;;;;30.42;34.60;99992.02;126078;1099;104085;-78
2023/07/29 10:25:17;;;;;;;2.72;2.45;;;;;;;30.36;34.17;99996.88;125814;1099;101810;-80
2023/07/29 10:27:53;;;;;;;3.90;2.70;;;;;;;30.37;34.44;99983.27;125405;1101;102004;-81
2023/07/29 10:30:25;;;;;;;2.77;2.50;;;;;;;30.39;34.54;99986.78;124730;1099;104165;-79
2023/07/29 10:32:59;;;;;;;3.30;2.73;;;;;;;30.41;34.06;99987.56;125308;1099;101887;-82
2023/07/29 10:35:30;;;;;;;3.30;2.70;;;;;;;30.44;34.01;99984.69;125241;1099;102223;-81
2023/07/29 10:38:02;;;;;;;3.50;2.60;;;;;;;30.54;34.15;99985.07;125108;1099;101726;-81
2023/07/29 10:40:49;;;;;;;3.40;2.50;;;;;;;30.65;33.86;99977.21;125197;1099;102007;-82
2023/07/29 10:43:28;;;;;;;3.50;2.70;;;;;;;30.71;33.73;99970.56;125192;1099;102111;-81
2023/07/29 10:46:24;;;;;;;3.23;2.70;;;;;;;30.78;33.70;99966.55;125077;1102;101897;-82
2023/07/29 10:48:59;;;;;;;4.87;2.73;;;;;;;30.82;33.58;99973.55;124952;1099;102112;-83
2023/07/29 10:51:32;;;;;;;3.50;2.60;;;;;;;30.95;33.75;99972.85;124950;1100;104172;-81
2023/07/29 10:54:03;;;;;;;;;;;;;;;30.80;33.65;99980.87;125109;1099;104242;-80
2023/07/29 10:56:36;;;;;;;4.03;2.60;;;;;;;30.64;33.71;99974.59;125060;1099;102041;-81
2023/07/29 10:59:36;;;;;;;2.90;2.60;;;;;;;30.44;33.11;99981.97;125086;1102;104258;-81
2023/07/29 11:02:16;;;;;;;3.17;2.63;;;;;;;30.25;33.15;99979.38;124998;1102;104258;-82
2023/07/29 11:04:52;;;;;;;6.73;2.63;;;;;;;30.18;33.35;99985.20;125197;1102;102376;-83
2023/07/29 11:07:28;;;;;;;4.33;2.60;;;;;;;30.06;33.29;99975.91;125215;1099;101994;-81
2023/07/29 11:10:01;;;;;;;4.03;2.50;;;;;;;29.99;33.26;99978.08;124945;1101;104342;-80
2023/07/29 11:12:42;;;;;;;4.63;2.37;;;;;;;29.96;33.28;99980.08;125074;1099;102120;-82
2023/07/29 11:15:22;;;;;;;5.03;2.80;;;;;;;29.93;33.64;99973.89;125069;1099;104175;-80
2023/07/29 11:17:55;;;;;;;4.07;2.90;;;;;;;30.01;33.59;99970.78;125500;1102;103772;-81
2023/07/29 11:20:25;;;;;;;;;;;;;;;30.10;33.79;99972.09;125367;1102;101905;-79
2023/07/29 11:22:58;;;;;;;4.60;2.77;;;;;;;30.05;33.90;99966.93;124886;1099;102096;-80
2023/07/29 11:25:33;;;;;;;3.83;2.97;;;;;;;30.01;33.92;99970.78;125178;1099;104245;-81
2023/07/29 11:28:04;;;;;;;5.30;2.63;;;;;;;30.08;34.07;99964.06;125377;1100;102997;-80
2023/07/29 11:30:39;;;;;;;5.50;2.60;;;;;;;30.14;34.00;99967.38;125295;1102;101864;-80
2023/07/29 11:33:11;;;;;;;4.30;2.60;;;;;;;30.20;33.91;99970.65;125262;1099;104178;-80